Time;durP1;ratioP1;P1;durP2;ratioP2;P2;SDS_P1;SDS_P2;PMS_P1;PMS_P2;Temp;Humidity;BMP_temperature;BMP_pressure;BME280_temperature;BME280_humidity;BME280_pressure;Samples;Min_cycle;Max_cycle;Signal;HPM_P1;HPM_P2
2021/01/14 00:02:19;;;;;;;0.00;0.00;;;;;;;;;;4946395;28;20039;-66
2021/01/14 00:04:45;;;;;;;0.00;0.00;;;;;;;;;;4947087;28;20026;-66
2021/01/14 00:07:10;;;;;;;0.00;0.00;;;;;;;;;;4926908;28;20118;-66
2021/01/14 00:09:36;;;;;;;0.00;0.00;;;;;;;;;;4944948;28;20998;-67
2021/01/14 00:12:02;;;;;;;0.00;0.00;;;;;;;;;;4928510;28;20031;-67
2021/01/14 00:14:27;;;;;;;0.00;0.00;;;;;;;;;;4941156;28;20027;-66
2021/01/14 00:16:53;;;;;;;0.00;0.00;;;;;;;;;;4945774;28;20521;-66
2021/01/14 00:19:19;;;;;;;0.00;0.00;;;;;;;;;;4925905;28;20034;-66
2021/01/14 00:21:44;;;;;;;0.00;0.00;;;;;;;;;;4947642;28;20025;-67
2021/01/14 00:24:12;;;;;;;0.00;0.00;;;;;;;;;;4926992;28;20035;-67
2021/01/14 00:26:42;;;;;;;0.00;0.00;;;;;;;;;;4927424;28;20390;-66
2021/01/14 00:29:10;;;;;;;0.00;0.00;;;;;;;;;;4943631;28;20453;-67
2021/01/14 00:31:36;;;;;;;0.00;0.00;;;;;;;;;;4938854;28;20631;-67
2021/01/14 00:34:04;;;;;;;0.00;0.00;;;;;;;;;;4946432;28;20276;-66
2021/01/14 00:39:23;;;;;;;0.00;0.00;;;;;;;;;;4939591;28;20100;-66
2021/01/14 00:41:51;;;;;;;0.00;0.00;;;;;;;;;;4926130;28;20039;-66
2021/01/14 00:44:17;;;;;;;0.00;0.00;;;;;;;;;;4921021;28;20119;-66
2021/01/14 00:46:42;;;;;;;0.00;0.00;;;;;;;;;;4945119;28;20064;-67
2021/01/14 00:49:08;;;;;;;0.00;0.00;;;;;;;;;;4926204;28;20050;-66
2021/01/14 00:51:35;;;;;;;0.00;0.00;;;;;;;;;;4927787;28;20580;-66
2021/01/14 00:54:01;;;;;;;0.00;0.00;;;;;;;;;;4946996;28;20854;-67
2021/01/14 00:56:33;;;;;;;0.00;0.00;;;;;;;;;;4944270;28;20039;-66
2021/01/14 00:59:01;;;;;;;0.00;0.00;;;;;;;;;;4940916;28;20031;-66
2021/01/14 01:01:27;;;;;;;0.00;0.00;;;;;;;;;;4933211;28;20130;-67
2021/01/14 01:03:52;;;;;;;0.00;0.00;;;;;;;;;;4943949;28;20039;-66
2021/01/14 01:06:21;;;;;;;0.00;0.00;;;;;;;;;;4940731;28;20142;-66
2021/01/14 01:08:47;;;;;;;0.00;0.00;;;;;;;;;;4944547;28;20522;-66
2021/01/14 01:11:13;;;;;;;0.00;0.00;;;;;;;;;;4945720;28;20062;-67
2021/01/14 01:13:40;;;;;;;0.00;0.00;;;;;;;;;;4938897;28;20030;-66
2021/01/14 01:16:06;;;;;;;0.00;0.00;;;;;;;;;;4932647;28;20482;-66
2021/01/14 01:18:33;;;;;;;0.00;0.00;;;;;;;;;;4930010;28;20134;-66
2021/01/14 01:21:00;;;;;;;0.00;0.00;;;;;;;;;;4941718;28;20043;-66
2021/01/14 01:23:25;;;;;;;0.00;0.00;;;;;;;;;;4942904;28;20037;-66
2021/01/14 01:25:51;;;;;;;0.00;0.00;;;;;;;;;;4945017;28;20031;-67
2021/01/14 01:28:16;;;;;;;0.00;0.00;;;;;;;;;;4944878;28;20023;-65
2021/01/14 01:30:42;;;;;;;0.00;0.00;;;;;;;;;;4945416;28;20031;-66
2021/01/14 01:33:08;;;;;;;0.00;0.00;;;;;;;;;;4945305;28;20134;-66
2021/01/14 01:35:34;;;;;;;0.00;0.00;;;;;;;;;;4947031;28;20073;-65
2021/01/14 01:37:59;;;;;;;0.00;0.00;;;;;;;;;;4924772;28;20185;-66
2021/01/14 01:40:25;;;;;;;0.00;0.00;;;;;;;;;;4941436;28;20034;-65
2021/01/14 01:42:56;;;;;;;0.00;0.00;;;;;;;;;;4942913;28;20034;-66
2021/01/14 01:45:22;;;;;;;0.00;0.00;;;;;;;;;;4940722;28;20077;-65
2021/01/14 01:47:48;;;;;;;0.00;0.00;;;;;;;;;;4940100;28;20101;-65
2021/01/14 01:50:14;;;;;;;0.00;0.00;;;;;;;;;;4943429;28;20023;-65
2021/01/14 01:52:40;;;;;;;0.00;0.00;;;;;;;;;;4937285;28;21687;-65
2021/01/14 01:55:07;;;;;;;0.00;0.00;;;;;;;;;;4937080;28;20062;-65
2021/01/14 01:57:33;;;;;;;0.00;0.00;;;;;;;;;;4929195;28;20042;-65
2021/01/14 02:00:00;;;;;;;0.00;0.00;;;;;;;;;;4947245;28;20065;-64
2021/01/14 02:02:27;;;;;;;0.00;0.00;;;;;;;;;;4929144;28;20461;-65
2021/01/14 02:04:56;;;;;;;0.00;0.00;;;;;;;;;;4947259;28;20031;-65
2021/01/14 02:07:30;;;;;;;0.00;0.00;;;;;;;;;;4942449;28;20038;-66
2021/01/14 02:09:56;;;;;;;0.00;0.00;;;;;;;;;;4939040;28;20089;-65
2021/01/14 02:12:24;;;;;;;0.00;0.00;;;;;;;;;;4945620;28;20039;-64
2021/01/14 02:14:55;;;;;;;0.00;0.00;;;;;;;;;;4944077;28;20398;-65
2021/01/14 02:17:23;;;;;;;0.00;0.00;;;;;;;;;;4937585;28;20310;-66
2021/01/14 02:19:54;;;;;;;0.00;0.00;;;;;;;;;;4939804;28;20019;-65
2021/01/14 02:22:27;;;;;;;0.00;0.00;;;;;;;;;;4945604;28;20672;-66
2021/01/14 02:24:59;;;;;;;0.00;0.00;;;;;;;;;;4923722;28;20030;-65
2021/01/14 02:27:27;;;;;;;0.00;0.00;;;;;;;;;;4943729;28;20746;-66
2021/01/14 02:29:57;;;;;;;0.00;0.00;;;;;;;;;;4945293;28;20511;-66
2021/01/14 02:32:23;;;;;;;0.00;0.00;;;;;;;;;;4944367;28;20355;-66
2021/01/14 02:34:51;;;;;;;0.00;0.00;;;;;;;;;;4944366;28;20075;-65
2021/01/14 02:37:17;;;;;;;0.00;0.00;;;;;;;;;;4946537;28;20042;-65
2021/01/14 02:39:48;;;;;;;0.00;0.00;;;;;;;;;;4945300;28;20075;-65
2021/01/14 02:42:15;;;;;;;0.00;0.00;;;;;;;;;;4939840;28;20522;-63
2021/01/14 02:44:46;;;;;;;0.00;0.00;;;;;;;;;;4943394;28;20058;-64
2021/01/14 02:47:14;;;;;;;0.00;0.00;;;;;;;;;;4945021;28;20051;-65
2021/01/14 02:49:49;;;;;;;0.00;0.00;;;;;;;;;;4946459;28;20489;-66
2021/01/14 02:52:16;;;;;;;0.00;0.00;;;;;;;;;;4929100;28;20089;-65
2021/01/14 02:54:47;;;;;;;0.00;0.00;;;;;;;;;;4927388;28;20764;-65
2021/01/14 02:57:13;;;;;;;0.00;0.00;;;;;;;;;;4944917;28;20026;-64
2021/01/14 02:59:40;;;;;;;0.00;0.00;;;;;;;;;;4944379;28;20584;-66
2021/01/14 03:02:06;;;;;;;0.00;0.00;;;;;;;;;;4938990;28;20035;-64
2021/01/14 03:04:31;;;;;;;0.00;0.00;;;;;;;;;;4939829;28;20047;-64
2021/01/14 03:06:59;;;;;;;0.00;0.00;;;;;;;;;;4927842;28;20034;-63
2021/01/14 03:09:25;;;;;;;0.00;0.00;;;;;;;;;;4923345;28;20030;-63
2021/01/14 03:11:50;;;;;;;0.00;0.00;;;;;;;;;;4922175;28;20526;-64
2021/01/14 03:14:16;;;;;;;0.00;0.00;;;;;;;;;;4940900;28;20034;-63
2021/01/14 03:16:42;;;;;;;0.00;0.00;;;;;;;;;;4942809;28;20034;-63
2021/01/14 03:19:10;;;;;;;0.00;0.00;;;;;;;;;;4945311;28;20617;-64
2021/01/14 03:21:38;;;;;;;0.00;0.00;;;;;;;;;;4939072;28;20546;-63
2021/01/14 03:24:03;;;;;;;0.00;0.00;;;;;;;;;;4928903;28;20033;-63
2021/01/14 03:26:31;;;;;;;0.00;0.00;;;;;;;;;;4945211;28;20034;-63
2021/01/14 03:28:58;;;;;;;0.00;0.00;;;;;;;;;;4930375;28;20619;-63
2021/01/14 03:31:26;;;;;;;0.00;0.00;;;;;;;;;;4941294;28;20437;-63
2021/01/14 03:33:51;;;;;;;0.00;0.00;;;;;;;;;;4948871;28;20035;-63
2021/01/14 03:36:18;;;;;;;0.00;0.00;;;;;;;;;;4949012;28;20140;-63
2021/01/14 03:38:49;;;;;;;0.00;0.00;;;;;;;;;;4940966;28;20501;-63
2021/01/14 03:41:20;;;;;;;0.00;0.00;;;;;;;;;;4938246;28;20043;-62
2021/01/14 03:43:46;;;;;;;0.00;0.00;;;;;;;;;;4930671;28;20839;-61
2021/01/14 03:46:13;;;;;;;0.00;0.00;;;;;;;;;;4949520;28;20027;-61
2021/01/14 03:48:40;;;;;;;0.00;0.00;;;;;;;;;;4949774;28;20085;-61
2021/01/14 03:51:24;;;;;;;0.00;0.00;;;;;;;;;;4929173;28;20104;-62
2021/01/14 03:53:50;;;;;;;;;;;;;;;;;;4929106;28;20055;-61
2021/01/14 03:56:16;;;;;;;0.00;0.00;;;;;;;;;;4933467;28;20423;-61
2021/01/14 03:58:45;;;;;;;0.00;0.00;;;;;;;;;;4932491;28;20406;-61
2021/01/14 04:01:11;;;;;;;0.00;0.00;;;;;;;;;;4930048;28;20453;-61
2021/01/14 04:03:40;;;;;;;0.00;0.00;;;;;;;;;;4917349;28;20448;-60
2021/01/14 04:06:08;;;;;;;0.00;0.00;;;;;;;;;;4929756;28;20062;-61
2021/01/14 04:08:36;;;;;;;0.00;0.00;;;;;;;;;;4933638;28;20035;-60
2021/01/14 04:11:03;;;;;;;0.00;0.00;;;;;;;;;;4928242;28;20374;-61
2021/01/14 04:13:31;;;;;;;0.00;0.00;;;;;;;;;;4930460;28;20102;-60
2021/01/14 04:15:57;;;;;;;0.00;0.00;;;;;;;;;;4931331;28;20398;-60
2021/01/14 04:18:22;;;;;;;0.00;0.00;;;;;;;;;;4929172;28;20031;-60
2021/01/14 04:20:48;;;;;;;0.00;0.00;;;;;;;;;;4932940;28;20042;-60
2021/01/14 04:23:14;;;;;;;0.00;0.00;;;;;;;;;;4929899;28;20050;-60
2021/01/14 04:25:39;;;;;;;0.00;0.00;;;;;;;;;;4928473;28;20027;-61
2021/01/14 04:28:09;;;;;;;0.00;0.00;;;;;;;;;;4932011;28;20031;-60
2021/01/14 04:30:35;;;;;;;0.00;0.00;;;;;;;;;;4929164;28;20093;-61
2021/01/14 04:33:13;;;;;;;0.00;0.00;;;;;;;;;;4929044;28;20389;-59
2021/01/14 04:35:56;;;;;;;0.00;0.00;;;;;;;;;;4923670;28;20816;-61
2021/01/14 04:38:22;;;;;;;0.00;0.00;;;;;;;;;;4913991;28;20134;-60
2021/01/14 04:40:57;;;;;;;0.00;0.00;;;;;;;;;;4926174;28;20054;-59
2021/01/14 04:43:24;;;;;;;0.00;0.00;;;;;;;;;;4922572;28;20067;-61
2021/01/14 04:49:30;;;;;;;0.00;0.00;;;;;;;;;;4927365;28;20112;-59
2021/01/14 04:52:03;;;;;;;0.00;0.00;;;;;;;;;;4911636;28;20673;-59
2021/01/14 04:54:32;;;;;;;0.00;0.00;;;;;;;;;;4937981;28;20181;-59
2021/01/14 04:57:04;;;;;;;0.00;0.00;;;;;;;;;;4939650;28;20057;-59
2021/01/14 04:59:34;;;;;;;0.00;0.00;;;;;;;;;;4939117;28;20058;-59
2021/01/14 05:02:00;;;;;;;0.00;0.00;;;;;;;;;;4923349;28;20055;-61
2021/01/14 05:04:28;;;;;;;0.00;0.00;;;;;;;;;;4939017;28;20042;-59
2021/01/14 05:06:59;;;;;;;0.00;0.00;;;;;;;;;;4941239;28;20035;-59
2021/01/14 05:09:32;;;;;;;0.00;0.00;;;;;;;;;;4942651;28;20110;-60
2021/01/14 05:12:00;;;;;;;0.00;0.00;;;;;;;;;;4942811;28;20888;-60
2021/01/14 05:14:28;;;;;;;0.00;0.00;;;;;;;;;;4944865;28;20129;-59
2021/01/14 05:16:59;;;;;;;0.00;0.00;;;;;;;;;;4944216;28;20042;-60
2021/01/14 05:19:24;;;;;;;0.00;0.00;;;;;;;;;;4945126;28;20514;-60
2021/01/14 05:21:51;;;;;;;0.00;0.00;;;;;;;;;;4927530;28;20042;-62
2021/01/14 05:24:19;;;;;;;0.00;0.00;;;;;;;;;;4942331;28;20375;-60
2021/01/14 05:26:47;;;;;;;0.00;0.00;;;;;;;;;;4938797;28;20406;-61
2021/01/14 05:29:13;;;;;;;0.00;0.00;;;;;;;;;;4946171;28;20041;-62
2021/01/14 05:31:38;;;;;;;0.00;0.00;;;;;;;;;;4931623;28;20035;-60
2021/01/14 05:37:42;;;;;;;0.00;0.00;;;;;;;;;;4943380;28;20104;-61
2021/01/14 05:40:11;;;;;;;0.00;0.00;;;;;;;;;;4925413;28;20031;-60
2021/01/14 05:42:39;;;;;;;0.00;0.00;;;;;;;;;;4923465;28;20325;-60
2021/01/14 05:45:23;;;;;;;0.00;0.00;;;;;;;;;;4943896;28;20037;-60
2021/01/14 05:47:51;;;;;;;0.00;0.00;;;;;;;;;;4925704;28;20508;-60
2021/01/14 05:50:41;;;;;;;1.00;0.28;;;;;;;;;;4942986;28;20023;-60
2021/01/14 05:53:33;;;;;;;0.00;0.00;;;;;;;;;;4940869;28;20375;-60
2021/01/14 05:56:01;;;;;;;0.00;0.00;;;;;;;;;;4935824;28;20403;-60
2021/01/14 05:58:26;;;;;;;0.00;0.00;;;;;;;;;;4925025;28;20058;-61
2021/01/14 06:00:54;;;;;;;0.00;0.00;;;;;;;;;;4944443;28;20118;-60
2021/01/14 06:03:29;;;;;;;0.00;0.00;;;;;;;;;;4943680;28;20148;-60
2021/01/14 06:05:58;;;;;;;0.00;0.00;;;;;;;;;;4943172;28;20034;-59
2021/01/14 06:08:27;;;;;;;0.00;0.00;;;;;;;;;;4942794;28;20045;-59
2021/01/14 06:10:53;;;;;;;0.00;0.00;;;;;;;;;;4941769;28;20078;-61
2021/01/14 06:13:36;;;;;;;0.00;0.00;;;;;;;;;;4944140;28;20388;-60
2021/01/14 06:16:04;;;;;;;0.00;0.00;;;;;;;;;;4942439;28;20299;-60
2021/01/14 06:18:34;;;;;;;0.00;0.00;;;;;;;;;;4942627;28;20251;-60
2021/01/14 06:21:03;;;;;;;0.00;0.00;;;;;;;;;;4925626;28;20442;-59
2021/01/14 06:23:48;;;;;;;0.10;0.10;;;;;;;;;;4942805;28;20034;-62
2021/01/14 06:26:28;;;;;;;0.00;0.00;;;;;;;;;;4942226;28;20034;-59
2021/01/14 06:29:01;;;;;;;0.00;0.00;;;;;;;;;;4922947;28;20046;-60
2021/01/14 06:31:29;;;;;;;0.00;0.00;;;;;;;;;;4922873;28;20031;-61
2021/01/14 06:33:55;;;;;;;0.00;0.00;;;;;;;;;;4926435;28;20490;-60
2021/01/14 06:36:30;;;;;;;0.00;0.00;;;;;;;;;;4908597;28;20540;-60
2021/01/14 06:39:02;;;;;;;0.00;0.00;;;;;;;;;;4945820;28;20121;-60
2021/01/14 06:41:37;;;;;;;0.00;0.00;;;;;;;;;;4941683;28;20035;-60
2021/01/14 06:44:05;;;;;;;0.00;0.00;;;;;;;;;;4944075;28;20134;-61
2021/01/14 06:46:36;;;;;;;0.00;0.00;;;;;;;;;;4942056;28;20030;-61
2021/01/14 06:49:08;;;;;;;0.00;0.00;;;;;;;;;;4923938;28;20073;-60
2021/01/14 06:51:42;;;;;;;0.00;0.00;;;;;;;;;;4941878;28;20026;-60
2021/01/14 06:54:16;;;;;;;0.00;0.00;;;;;;;;;;4923451;28;20582;-60
2021/01/14 06:56:54;;;;;;;0.00;0.00;;;;;;;;;;4929410;28;20031;-59
2021/01/14 06:59:25;;;;;;;0.00;0.00;;;;;;;;;;4943659;28;20036;-60
2021/01/14 07:02:11;;;;;;;0.00;0.00;;;;;;;;;;4948224;28;20193;-62
2021/01/14 07:04:50;;;;;;;0.00;0.00;;;;;;;;;;4898340;28;20065;-61
2021/01/14 07:07:25;;;;;;;0.00;0.00;;;;;;;;;;4945723;28;20496;-59
2021/01/14 07:10:00;;;;;;;0.00;0.00;;;;;;;;;;4925230;28;20042;-60
2021/01/14 07:12:34;;;;;;;0.00;0.00;;;;;;;;;;4948135;28;20035;-60
2021/01/14 07:15:12;;;;;;;0.00;0.00;;;;;;;;;;4944529;28;20034;-60
2021/01/14 07:17:41;;;;;;;0.00;0.00;;;;;;;;;;4926801;28;20434;-60
2021/01/14 07:20:12;;;;;;;0.00;0.00;;;;;;;;;;4925695;28;20469;-60
2021/01/14 07:22:44;;;;;;;0.00;0.00;;;;;;;;;;4946354;28;20035;-60
2021/01/14 07:25:15;;;;;;;0.00;0.00;;;;;;;;;;4945190;28;20030;-60
2021/01/14 07:27:42;;;;;;;0.90;0.90;;;;;;;;;;4947776;28;20026;-60
2021/01/14 07:30:08;;;;;;;0.00;0.00;;;;;;;;;;4947177;28;20225;-61
2021/01/14 07:32:50;;;;;;;0.00;0.00;;;;;;;;;;4943911;28;20403;-61
2021/01/14 07:35:34;;;;;;;0.00;0.00;;;;;;;;;;4944512;28;20034;-60
2021/01/14 07:38:05;;;;;;;0.45;0.45;;;;;;;;;;4945358;28;20277;-60
2021/01/14 07:40:32;;;;;;;0.00;0.00;;;;;;;;;;4945187;28;20085;-61
2021/01/14 07:42:58;;;;;;;0.00;0.00;;;;;;;;;;4947505;28;20155;-61
2021/01/14 07:45:29;;;;;;;0.10;0.10;;;;;;;;;;4947065;28;20064;-60
2021/01/14 07:47:57;;;;;;;0.43;0.43;;;;;;;;;;4945951;28;20026;-60
2021/01/14 07:50:27;;;;;;;0.00;0.00;;;;;;;;;;4945717;28;20184;-59
2021/01/14 07:52:55;;;;;;;0.00;0.00;;;;;;;;;;4948202;28;20134;-60
2021/01/14 07:55:37;;;;;;;0.00;0.00;;;;;;;;;;4945389;28;20045;-60
2021/01/14 07:58:19;;;;;;;0.00;0.00;;;;;;;;;;4945841;28;20438;-59
2021/01/14 08:01:03;;;;;;;0.00;0.00;;;;;;;;;;4941880;28;20177;-61
2021/01/14 08:03:32;;;;;;;0.00;0.00;;;;;;;;;;4925938;28;20407;-60
2021/01/14 08:05:57;;;;;;;0.00;0.00;;;;;;;;;;4927739;28;20097;-61
2021/01/14 08:08:36;;;;;;;23.60;1.20;;;;;;;;;;4940157;28;20054;-60
2021/01/14 08:11:12;;;;;;;0.00;0.00;;;;;;;;;;4945485;28;20058;-61
2021/01/14 08:13:56;;;;;;;0.00;0.00;;;;;;;;;;4945319;28;20063;-60
2021/01/14 08:16:33;;;;;;;0.00;0.00;;;;;;;;;;4925886;28;20026;-62
2021/01/14 08:19:07;;;;;;;0.52;0.52;;;;;;;;;;4942165;28;20486;-60
2021/01/14 08:21:35;;;;;;;0.00;0.00;;;;;;;;;;4943433;28;20030;-60
2021/01/14 08:24:00;;;;;;;0.00;0.00;;;;;;;;;;4944432;28;20030;-61
2021/01/14 08:26:28;;;;;;;0.00;0.00;;;;;;;;;;4942837;28;20167;-60
2021/01/14 08:29:02;;;;;;;0.00;0.00;;;;;;;;;;4948393;28;20026;-60
2021/01/14 08:31:37;;;;;;;0.00;0.00;;;;;;;;;;4925711;28;20729;-60
2021/01/14 08:34:05;;;;;;;0.00;0.00;;;;;;;;;;4946127;28;20062;-60
2021/01/14 08:36:31;;;;;;;0.00;0.00;;;;;;;;;;4942745;28;20416;-61
2021/01/14 08:39:00;;;;;;;0.00;0.00;;;;;;;;;;4940404;28;20069;-60
2021/01/14 08:41:27;;;;;;;0.00;0.00;;;;;;;;;;4944612;28;20589;-61
2021/01/14 08:43:52;;;;;;;0.00;0.00;;;;;;;;;;4945511;28;20046;-62
2021/01/14 08:46:36;;;;;;;0.00;0.00;;;;;;;;;;4926921;28;20034;-62
2021/01/14 08:49:14;;;;;;;0.00;0.00;;;;;;;;;;4944501;28;20058;-62
2021/01/14 08:51:40;;;;;;;0.05;0.05;;;;;;;;;;4944771;28;20033;-62
2021/01/14 08:54:06;;;;;;;0.00;0.00;;;;;;;;;;4941699;28;20132;-61
2021/01/14 08:56:32;;;;;;;0.00;0.00;;;;;;;;;;4929533;28;21003;-62
2021/01/14 08:59:11;;;;;;;0.00;0.00;;;;;;;;;;4927190;28;20043;-62
2021/01/14 09:01:42;;;;;;;0.00;0.00;;;;;;;;;;4939746;28;20065;-61
2021/01/14 09:04:09;;;;;;;0.10;0.10;;;;;;;;;;4944725;28;20046;-62
2021/01/14 09:06:42;;;;;;;0.00;0.00;;;;;;;;;;4943715;28;20549;-62
2021/01/14 09:09:09;;;;;;;0.20;0.20;;;;;;;;;;4944888;28;20034;-62
2021/01/14 09:11:37;;;;;;;0.40;0.40;;;;;;;;;;4940797;28;20019;-61
2021/01/14 09:14:11;;;;;;;0.17;0.17;;;;;;;;;;4943930;28;20071;-61
2021/01/14 09:16:38;;;;;;;0.00;0.00;;;;;;;;;;4944357;28;20039;-60
2021/01/14 09:19:17;;;;;;;0.00;0.00;;;;;;;;;;4944462;28;20034;-61
2021/01/14 09:21:44;;;;;;;0.00;0.00;;;;;;;;;;4945394;28;20042;-62
2021/01/14 09:24:13;;;;;;;0.00;0.00;;;;;;;;;;4936968;28;20202;-62
2021/01/14 09:26:40;;;;;;;0.10;0.10;;;;;;;;;;4924331;28;20449;-60
2021/01/14 09:29:06;;;;;;;0.00;0.00;;;;;;;;;;4924433;28;20494;-62
2021/01/14 09:31:34;;;;;;;0.00;0.00;;;;;;;;;;4945066;28;20042;-61
2021/01/14 09:34:05;;;;;;;0.00;0.00;;;;;;;;;;4940956;28;20470;-60
2021/01/14 09:36:33;;;;;;;0.00;0.00;;;;;;;;;;4928942;28;20045;-60
2021/01/14 09:39:01;;;;;;;0.10;0.10;;;;;;;;;;4945677;28;20263;-60
2021/01/14 09:41:29;;;;;;;0.00;0.00;;;;;;;;;;4944310;28;20118;-61
2021/01/14 09:43:58;;;;;;;0.00;0.00;;;;;;;;;;4943051;28;20023;-61
2021/01/14 09:46:28;;;;;;;0.00;0.00;;;;;;;;;;4942385;28;20026;-61
2021/01/14 09:49:00;;;;;;;0.00;0.00;;;;;;;;;;4923841;28;20030;-61
2021/01/14 09:51:28;;;;;;;0.00;0.00;;;;;;;;;;4939471;28;20172;-61
2021/01/14 09:53:54;;;;;;;0.20;0.20;;;;;;;;;;4940480;28;20696;-60
2021/01/14 09:56:30;;;;;;;0.10;0.10;;;;;;;;;;4922098;28;20046;-60
2021/01/14 09:58:59;;;;;;;0.00;0.00;;;;;;;;;;4946747;28;20173;-60
2021/01/14 10:01:28;;;;;;;0.00;0.00;;;;;;;;;;4944050;28;20400;-62
2021/01/14 10:07:33;;;;;;;0.00;0.00;;;;;;;;;;4943421;28;20034;-60
2021/01/14 10:09:58;;;;;;;0.25;0.25;;;;;;;;;;4938740;28;20234;-62
2021/01/14 10:12:27;;;;;;;0.00;0.00;;;;;;;;;;4943917;28;22162;-62
2021/01/14 10:15:12;;;;;;;0.00;0.00;;;;;;;;;;4942921;28;20035;-60
2021/01/14 10:17:43;;;;;;;0.32;0.32;;;;;;;;;;4943102;28;20633;-61
2021/01/14 10:20:12;;;;;;;0.00;0.00;;;;;;;;;;4926523;28;20030;-60
2021/01/14 10:22:45;;;;;;;0.00;0.00;;;;;;;;;;4938385;28;20034;-60
2021/01/14 10:25:10;;;;;;;0.00;0.00;;;;;;;;;;4934881;28;20033;-61
2021/01/14 10:27:38;;;;;;;0.47;0.47;;;;;;;;;;4937012;28;20077;-61
2021/01/14 10:30:16;;;;;;;0.35;0.35;;;;;;;;;;4942607;28;20999;-61
2021/01/14 10:32:42;;;;;;;0.00;0.00;;;;;;;;;;4923685;28;20093;-60
2021/01/14 10:35:21;;;;;;;0.00;0.00;;;;;;;;;;4942120;28;20310;-60
2021/01/14 10:38:02;;;;;;;0.00;0.00;;;;;;;;;;4943675;28;20034;-61
2021/01/14 10:40:32;;;;;;;0.00;0.00;;;;;;;;;;4925840;28;20463;-59
2021/01/14 10:43:01;;;;;;;0.00;0.00;;;;;;;;;;4926419;28;20121;-61
2021/01/14 10:45:31;;;;;;;0.00;0.00;;;;;;;;;;4927707;28;20042;-62
2021/01/14 10:48:06;;;;;;;0.00;0.00;;;;;;;;;;4943810;28;20026;-61
2021/01/14 10:50:34;;;;;;;;;;;;;;;;;;4942513;28;20105;-61
2021/01/14 10:53:03;;;;;;;0.15;0.15;;;;;;;;;;4945095;28;20173;-61
2021/01/14 10:55:32;;;;;;;0.00;0.00;;;;;;;;;;4945845;28;20189;-61
2021/01/14 10:58:03;;;;;;;0.00;0.00;;;;;;;;;;4929056;28;20066;-61
2021/01/14 11:00:42;;;;;;;0.00;0.00;;;;;;;;;;4944167;28;20662;-61
2021/01/14 11:03:12;;;;;;;0.00;0.00;;;;;;;;;;4945985;28;20047;-61
2021/01/14 11:05:38;;;;;;;0.13;0.13;;;;;;;;;;4925377;28;20035;-60
2021/01/14 11:08:09;;;;;;;3.10;1.15;;;;;;;;;;4945686;28;20153;-64
2021/01/14 11:10:37;;;;;;;0.00;0.00;;;;;;;;;;4943744;28;20059;-63
2021/01/14 11:13:03;;;;;;;0.63;0.63;;;;;;;;;;4939499;28;20098;-61
2021/01/14 11:15:29;;;;;;;0.00;0.00;;;;;;;;;;4922923;28;20043;-60
2021/01/14 11:17:55;;;;;;;0.00;0.00;;;;;;;;;;4924106;28;20037;-61
2021/01/14 11:20:22;;;;;;;0.40;0.40;;;;;;;;;;4925350;28;20098;-62
2021/01/14 11:22:48;;;;;;;0.10;0.10;;;;;;;;;;4927951;28;20141;-61
2021/01/14 11:25:16;;;;;;;0.08;0.08;;;;;;;;;;4925264;28;20038;-61
2021/01/14 11:27:46;;;;;;;0.00;0.00;;;;;;;;;;4941549;28;20031;-63
2021/01/14 11:30:13;;;;;;;0.00;0.00;;;;;;;;;;4926588;28;20027;-60
2021/01/14 11:32:39;;;;;;;0.00;0.00;;;;;;;;;;4943546;28;20027;-60
2021/01/14 11:35:04;;;;;;;0.88;0.85;;;;;;;;;;4924717;28;20027;-62
2021/01/14 11:37:30;;;;;;;0.00;0.00;;;;;;;;;;4944860;28;20031;-61
2021/01/14 11:39:58;;;;;;;0.00;0.00;;;;;;;;;;4924475;28;20088;-61
2021/01/14 11:42:27;;;;;;;0.00;0.00;;;;;;;;;;4925109;28;20038;-62
2021/01/14 11:44:55;;;;;;;0.40;0.40;;;;;;;;;;4924536;28;20528;-61
2021/01/14 11:47:20;;;;;;;0.38;0.30;;;;;;;;;;4945138;28;21586;-61
2021/01/14 11:49:51;;;;;;;4.05;0.80;;;;;;;;;;4949195;28;20109;-61
2021/01/14 11:52:21;;;;;;;0.00;0.00;;;;;;;;;;4926334;28;20066;-61
2021/01/14 11:54:49;;;;;;;0.00;0.00;;;;;;;;;;4925430;28;20042;-61
2021/01/14 11:57:15;;;;;;;0.00;0.00;;;;;;;;;;4913169;28;20044;-60
2021/01/14 11:59:45;;;;;;;0.00;0.00;;;;;;;;;;4942449;28;20066;-61
2021/01/14 12:02:11;;;;;;;0.10;0.10;;;;;;;;;;4917078;28;20676;-62
2021/01/14 12:04:36;;;;;;;0.00;0.00;;;;;;;;;;4946529;28;20039;-62
2021/01/14 12:07:04;;;;;;;0.00;0.00;;;;;;;;;;4946776;28;20031;-61
2021/01/14 12:09:35;;;;;;;0.10;0.10;;;;;;;;;;4927195;28;20042;-62
2021/01/14 12:12:03;;;;;;;0.75;0.75;;;;;;;;;;4948191;28;20082;-63
2021/01/14 12:14:30;;;;;;;0.20;0.17;;;;;;;;;;4946061;28;20402;-61
2021/01/14 12:16:59;;;;;;;0.00;0.00;;;;;;;;;;4942205;28;20065;-62
2021/01/14 12:19:27;;;;;;;0.05;0.05;;;;;;;;;;4927285;28;20717;-62
2021/01/14 12:22:01;;;;;;;0.43;0.38;;;;;;;;;;4947134;28;20125;-61
2021/01/14 12:24:29;;;;;;;0.00;0.00;;;;;;;;;;4944721;28;20068;-61
2021/01/14 12:26:54;;;;;;;0.10;0.10;;;;;;;;;;4925108;28;20047;-61
2021/01/14 12:29:23;;;;;;;0.38;0.35;;;;;;;;;;4947710;28;20038;-62
2021/01/14 12:31:51;;;;;;;0.00;0.00;;;;;;;;;;4924545;28;20422;-61
2021/01/14 12:34:19;;;;;;;1.85;0.45;;;;;;;;;;4944062;28;20027;-61
2021/01/14 12:36:45;;;;;;;0.38;0.32;;;;;;;;;;4942737;28;20104;-61
2021/01/14 12:39:11;;;;;;;0.00;0.00;;;;;;;;;;4944803;28;20177;-60
2021/01/14 12:41:38;;;;;;;0.00;0.00;;;;;;;;;;4946128;28;20032;-61
2021/01/14 12:44:06;;;;;;;0.25;0.25;;;;;;;;;;4940423;28;20565;-61
2021/01/14 12:46:34;;;;;;;0.75;0.70;;;;;;;;;;4943578;28;20396;-61
2021/01/14 12:48:59;;;;;;;0.25;0.25;;;;;;;;;;4944639;28;20743;-61
2021/01/14 12:51:25;;;;;;;1.35;0.55;;;;;;;;;;4918739;28;20038;-61
2021/01/14 12:53:55;;;;;;;0.00;0.00;;;;;;;;;;4940182;28;20157;-61
2021/01/14 12:56:22;;;;;;;0.70;0.30;;;;;;;;;;4944204;28;20243;-60
2021/01/14 12:58:48;;;;;;;0.00;0.00;;;;;;;;;;4945514;28;20256;-61
2021/01/14 13:01:26;;;;;;;0.15;0.15;;;;;;;;;;4932165;28;20509;-61
2021/01/14 13:03:52;;;;;;;0.10;0.10;;;;;;;;;;4943829;28;21001;-61
2021/01/14 13:06:27;;;;;;;0.30;0.30;;;;;;;;;;4943991;28;20117;-61
2021/01/14 13:08:55;;;;;;;0.40;0.40;;;;;;;;;;4928554;28;20591;-61
2021/01/14 13:11:21;;;;;;;0.00;0.00;;;;;;;;;;4941475;28;20586;-61
2021/01/14 13:13:47;;;;;;;0.10;0.10;;;;;;;;;;4943839;28;20019;-61
2021/01/14 13:16:15;;;;;;;0.00;0.00;;;;;;;;;;4944336;28;20599;-62
2021/01/14 13:18:41;;;;;;;0.10;0.10;;;;;;;;;;4925727;28;20298;-63
2021/01/14 13:21:11;;;;;;;0.00;0.00;;;;;;;;;;4942576;28;20478;-61
2021/01/14 13:23:37;;;;;;;0.10;0.10;;;;;;;;;;4940194;28;20043;-61
2021/01/14 13:26:07;;;;;;;0.00;0.00;;;;;;;;;;4942052;28;20023;-61
2021/01/14 13:28:32;;;;;;;0.05;0.05;;;;;;;;;;4941421;28;20098;-61
2021/01/14 13:30:58;;;;;;;0.13;0.13;;;;;;;;;;4943675;28;20023;-60
2021/01/14 13:33:24;;;;;;;0.25;0.25;;;;;;;;;;4944206;28;20065;-61
2021/01/14 13:35:59;;;;;;;0.57;0.57;;;;;;;;;;4927512;28;20076;-61
2021/01/14 13:38:27;;;;;;;0.00;0.00;;;;;;;;;;4926970;28;20461;-61
2021/01/14 13:40:55;;;;;;;0.08;0.08;;;;;;;;;;4908935;28;20031;-62
2021/01/14 13:43:23;;;;;;;0.00;0.00;;;;;;;;;;4938593;28;20704;-61
2021/01/14 13:45:48;;;;;;;0.00;0.00;;;;;;;;;;4927740;28;20402;-60
2021/01/14 13:48:16;;;;;;;0.00;0.00;;;;;;;;;;4927031;28;20038;-62
2021/01/14 13:50:42;;;;;;;0.32;0.32;;;;;;;;;;4936813;28;20030;-61
2021/01/14 13:53:09;;;;;;;0.00;0.00;;;;;;;;;;4933503;28;20078;-61
2021/01/14 13:55:37;;;;;;;0.32;0.32;;;;;;;;;;4922481;28;20043;-62
2021/01/14 13:58:11;;;;;;;0.00;0.00;;;;;;;;;;4909669;28;20894;-63
2021/01/14 14:00:42;;;;;;;0.00;0.00;;;;;;;;;;4907186;28;20114;-61
2021/01/14 14:03:10;;;;;;;0.80;0.80;;;;;;;;;;4904548;28;20027;-62
2021/01/14 14:05:37;;;;;;;0.00;0.00;;;;;;;;;;4924639;28;20191;-61
2021/01/14 14:08:03;;;;;;;0.00;0.00;;;;;;;;;;4926020;28;20059;-61
2021/01/14 14:10:31;;;;;;;0.00;0.00;;;;;;;;;;4904810;28;20042;-62
2021/01/14 14:12:59;;;;;;;0.77;0.77;;;;;;;;;;4922829;28;20043;-62
2021/01/14 14:15:25;;;;;;;0.00;0.00;;;;;;;;;;4925417;28;20748;-62
2021/01/14 14:17:56;;;;;;;0.00;0.00;;;;;;;;;;4908164;28;20112;-61
2021/01/14 14:20:24;;;;;;;0.10;0.10;;;;;;;;;;4922096;28;20760;-61
2021/01/14 14:22:54;;;;;;;0.30;0.30;;;;;;;;;;4925109;28;20037;-61
2021/01/14 14:25:22;;;;;;;0.00;0.00;;;;;;;;;;4906286;28;21767;-61
2021/01/14 14:27:47;;;;;;;0.00;0.00;;;;;;;;;;4899172;28;20065;-62
2021/01/14 14:30:15;;;;;;;0.08;0.08;;;;;;;;;;4920797;28;20232;-62
2021/01/14 14:32:44;;;;;;;0.00;0.00;;;;;;;;;;4921285;28;20039;-63
2021/01/14 14:35:12;;;;;;;0.00;0.00;;;;;;;;;;4925346;28;20027;-62
2021/01/14 14:37:40;;;;;;;0.00;0.00;;;;;;;;;;4924135;28;20035;-61
2021/01/14 14:40:05;;;;;;;0.00;0.00;;;;;;;;;;4919838;28;20310;-62
2021/01/14 14:42:31;;;;;;;0.28;0.28;;;;;;;;;;4898904;29;20117;-62
2021/01/14 14:44:59;;;;;;;0.43;0.43;;;;;;;;;;4896163;28;20070;-62
2021/01/14 14:47:24;;;;;;;0.00;0.00;;;;;;;;;;4911709;28;20082;-62
2021/01/14 14:49:52;;;;;;;2.08;1.88;;;;;;;;;;4924799;28;20082;-60
2021/01/14 14:52:21;;;;;;;0.00;0.00;;;;;;;;;;4889182;28;20066;-62
2021/01/14 14:54:52;;;;;;;0.63;0.57;;;;;;;;;;4943418;28;20502;-62
2021/01/14 14:57:20;;;;;;;1.02;1.02;;;;;;;;;;4932647;28;20027;-61
2021/01/14 14:59:49;;;;;;;0.00;0.00;;;;;;;;;;4945761;28;20506;-61
2021/01/14 15:02:14;;;;;;;0.00;0.00;;;;;;;;;;4937749;28;20034;-62
2021/01/14 15:04:42;;;;;;;0.00;0.00;;;;;;;;;;4944031;28;20418;-61
2021/01/14 15:07:10;;;;;;;0.00;0.00;;;;;;;;;;4939985;28;20058;-62
2021/01/14 15:09:36;;;;;;;0.00;0.00;;;;;;;;;;4925400;28;21023;-62